Time;durP1;ratioP1;P1;durP2;ratioP2;P2;SDS_P1;SDS_P2;PMS_P1;PMS_P2;Temp;Humidity;BMP_temperature;BMP_pressure;BME280_temperature;BME280_humidity;BME280_pressure;Samples;Min_cycle;Max_cycle;Signal;HPM_P1;HPM_P2
2022/03/12 00:01:59;;;;;;;20.40;10.10;;;;;;;-6.03;60.56;102342.86;87619;1284;80125;-58
2022/03/12 00:04:08;;;;;;;20.40;9.60;;;;;;;-6.07;60.72;102338.77;87548;1284;99822;-58
2022/03/12 00:06:21;;;;;;;17.70;9.60;;;;;;;-6.11;60.74;102338.50;87579;1284;88575;-60
2022/03/12 00:08:41;;;;;;;20.70;10.40;;;;;;;-6.11;60.73;102335.17;87566;1284;94504;-70
2022/03/12 00:10:54;;;;;;;20.80;9.70;;;;;;;-6.11;61.00;102338.84;87540;1284;78990;-70
2022/03/12 00:13:04;;;;;;;21.90;9.60;;;;;;;-6.13;61.15;102339.23;87545;1284;81478;-70
2022/03/12 00:15:14;;;;;;;21.40;10.30;;;;;;;-6.16;61.35;102339.33;87574;1284;97784;-69
2022/03/12 00:17:25;;;;;;;21.20;10.00;;;;;;;-6.17;61.33;102336.54;87545;1284;88486;-70
2022/03/12 00:19:35;;;;;;;19.10;9.60;;;;;;;-6.18;61.36;102337.25;87592;1284;95329;-59
2022/03/12 00:21:44;;;;;;;16.10;8.80;;;;;;;-6.21;61.58;102335.42;87567;1284;79688;-60
2022/03/12 00:23:55;;;;;;;18.20;9.30;;;;;;;-6.21;61.69;102334.53;87572;1284;82945;-59
2022/03/12 00:26:07;;;;;;;18.70;9.60;;;;;;;-6.22;61.67;102334.92;87565;1284;99592;-59
2022/03/12 00:28:17;;;;;;;19.20;9.50;;;;;;;-6.25;62.07;102331.66;87588;1284;89110;-70
2022/03/12 00:30:28;;;;;;;22.00;9.90;;;;;;;-6.29;62.07;102330.17;87333;1287;95907;-72
2022/03/12 00:32:38;;;;;;;17.60;9.10;;;;;;;-6.33;62.18;102331.48;87552;1284;81552;-70
2022/03/12 00:34:47;;;;;;;18.30;9.10;;;;;;;-6.35;62.10;102331.37;87583;1284;79176;-71
2022/03/12 00:36:59;;;;;;;20.90;10.00;;;;;;;-6.36;62.38;102327.88;87537;1284;99353;-70
2022/03/12 00:39:12;;;;;;;19.00;9.60;;;;;;;-6.36;62.29;102321.55;87554;1284;89351;-71
2022/03/12 00:41:21;;;;;;;19.60;9.40;;;;;;;-6.35;62.34;102316.10;87554;1284;94515;-70
2022/03/12 00:43:34;;;;;;;19.40;9.30;;;;;;;-6.36;62.31;102315.95;87519;1284;79681;-59
2022/03/12 00:45:43;;;;;;;18.40;9.50;;;;;;;-6.34;62.33;102316.09;87536;1284;82687;-60
2022/03/12 00:47:52;;;;;;;20.20;10.30;;;;;;;-6.34;62.52;102312.04;87552;1284;99357;-60
2022/03/12 00:50:01;;;;;;;22.70;10.20;;;;;;;-6.34;62.32;102319.06;87542;1284;88772;-70
2022/03/12 00:52:11;;;;;;;21.60;10.80;;;;;;;-6.38;62.46;102317.41;87544;1284;95850;-70
2022/03/12 00:54:20;;;;;;;18.80;9.40;;;;;;;-6.41;62.52;102316.24;87546;1284;82112;-70
2022/03/12 00:56:32;;;;;;;18.30;10.50;;;;;;;-6.42;62.66;102314.70;87537;1284;79499;-70
2022/03/12 00:58:45;;;;;;;18.30;10.40;;;;;;;-6.45;62.73;102315.84;87564;1284;98985;-59
2022/03/12 01:00:54;;;;;;;18.20;9.70;;;;;;;-6.46;62.91;102314.98;87542;1284;89933;-59
2022/03/12 01:03:07;;;;;;;18.70;10.00;;;;;;;-6.50;62.82;102316.48;87547;1284;93452;-63
2022/03/12 01:05:19;;;;;;;18.80;9.30;;;;;;;-6.52;62.94;102318.26;87526;1284;82345;-59
2022/03/12 01:07:29;;;;;;;19.90;10.30;;;;;;;-6.53;63.05;102317.39;87543;1284;82198;-59
2022/03/12 01:09:38;;;;;;;23.00;9.80;;;;;;;-6.57;62.93;102314.69;87574;1284;97007;-70
2022/03/12 01:11:51;;;;;;;20.50;10.70;;;;;;;-6.60;63.02;102313.54;87518;1284;88676;-71
2022/03/12 01:14:01;;;;;;;19.70;10.20;;;;;;;-6.64;63.10;102311.35;87556;1284;95348;-71
2022/03/12 01:16:11;;;;;;;18.80;9.40;;;;;;;-6.65;63.41;102314.34;87558;1284;79840;-70
2022/03/12 01:18:22;;;;;;;18.80;9.50;;;;;;;-6.65;63.39;102312.60;87537;1284;80549;-71
2022/03/12 01:20:32;;;;;;;20.00;10.70;;;;;;;-6.69;63.37;102310.57;87511;1284;99433;-70
2022/03/12 01:22:42;;;;;;;20.30;9.60;;;;;;;-6.71;63.63;102310.27;87518;1284;88902;-70
2022/03/12 01:24:54;;;;;;;21.40;11.00;;;;;;;-6.74;63.91;102305.59;87523;1284;94779;-59
2022/03/12 01:27:03;;;;;;;18.10;9.10;;;;;;;-6.72;63.66;102310.98;87519;1284;82049;-59
2022/03/12 01:29:13;;;;;;;21.00;10.20;;;;;;;-6.72;63.83;102310.64;87563;1284;81033;-59
2022/03/12 01:31:23;;;;;;;19.60;9.70;;;;;;;-6.73;64.06;102305.92;87527;1284;98432;-59
2022/03/12 01:33:33;;;;;;;20.80;9.90;;;;;;;-6.73;64.14;102304.87;87499;1284;89488;-70
2022/03/12 01:35:47;;;;;;;18.70;9.80;;;;;;;-6.73;64.29;102304.70;87558;1284;92919;-70
2022/03/12 01:38:01;;;;;;;22.80;10.40;;;;;;;-6.72;64.34;102306.27;87522;1284;78702;-71
2022/03/12 01:40:13;;;;;;;20.70;10.30;;;;;;;-6.72;64.26;102301.53;87532;1284;81922;-59
2022/03/12 01:42:27;;;;;;;20.30;10.40;;;;;;;-6.73;64.37;102300.69;87529;1284;98870;-59
2022/03/12 01:44:36;;;;;;;18.80;9.40;;;;;;;-6.75;64.40;102301.23;87522;1284;89488;-60
2022/03/12 01:46:49;;;;;;;18.80;10.10;;;;;;;-6.77;64.58;102300.58;87500;1285;95527;-58
2022/03/12 01:48:59;;;;;;;19.30;9.90;;;;;;;-6.76;64.52;102298.66;87519;1284;78537;-59
2022/03/12 01:51:08;;;;;;;20.20;10.60;;;;;;;-6.78;64.48;102299.58;87545;1284;82007;-58
2022/03/12 01:53:18;;;;;;;23.10;11.10;;;;;;;-6.83;64.65;102300.20;87511;1284;99584;-60
2022/03/12 01:55:30;;;;;;;20.50;10.90;;;;;;;-6.86;64.50;102296.05;87531;1284;88994;-65
2022/03/12 01:57:40;;;;;;;20.70;11.20;;;;;;;-6.91;64.65;102296.16;87524;1284;94343;-59
2022/03/12 01:59:51;;;;;;;24.30;11.30;;;;;;;-6.98;64.60;102295.80;87325;1287;83389;-70
2022/03/12 02:02:00;;;;;;;22.90;11.00;;;;;;;-7.01;64.92;102296.38;87537;1284;82877;-66
2022/03/12 02:04:11;;;;;;;20.20;10.60;;;;;;;-7.02;64.92;102294.48;87526;1284;98200;-68
2022/03/12 02:06:24;;;;;;;25.30;11.20;;;;;;;-7.05;65.11;102293.30;87530;1284;87214;-68
2022/03/12 02:08:34;;;;;;;21.00;10.70;;;;;;;-7.06;65.13;102293.69;87550;1284;95352;-67
2022/03/12 02:10:44;;;;;;;21.60;11.00;;;;;;;-7.13;65.19;102302.93;87508;1284;82044;-67
2022/03/12 02:12:54;;;;;;;22.40;10.60;;;;;;;-7.14;65.10;102298.76;87533;1284;81820;-68
2022/03/12 02:15:07;;;;;;;20.50;10.70;;;;;;;-7.17;65.16;102298.11;87524;1284;97874;-61
2022/03/12 02:17:17;;;;;;;22.20;11.60;;;;;;;-7.24;65.40;102295.45;87527;1284;89743;-60
2022/03/12 02:19:30;;;;;;;22.20;10.80;;;;;;;-7.26;65.54;102295.31;87490;1284;95220;-60
2022/03/12 02:21:44;;;;;;;18.70;9.60;;;;;;;-7.29;65.70;102295.02;87525;1284;80655;-61
2022/03/12 02:23:53;;;;;;;19.10;10.20;;;;;;;-7.32;65.59;102293.16;87581;1284;79251;-67
2022/03/12 02:26:05;;;;;;;23.60;10.30;;;;;;;-7.31;65.71;102289.48;87532;1284;100320;-67
2022/03/12 02:28:21;;;;;;;21.30;10.30;;;;;;;-7.31;65.71;102283.00;87582;1284;88892;-59
2022/03/12 02:30:34;;;;;;;17.90;10.00;;;;;;;-7.34;65.85;102281.83;87547;1284;95566;-60
2022/03/12 02:32:44;;;;;;;19.50;10.30;;;;;;;-7.36;65.83;102281.71;87544;1284;79959;-60
2022/03/12 02:34:56;;;;;;;19.30;10.20;;;;;;;-7.36;65.94;102280.13;87557;1284;80498;-60
2022/03/12 02:37:06;;;;;;;18.60;10.20;;;;;;;-7.37;65.96;102278.92;87428;1285;100006;-62
2022/03/12 02:39:17;;;;;;;20.20;10.00;;;;;;;-7.36;65.99;102277.67;87521;1284;87318;-59
2022/03/12 02:41:28;;;;;;;23.70;10.50;;;;;;;-7.37;66.05;102275.95;87570;1284;94681;-60
2022/03/12 02:43:43;;;;;;;20.00;10.10;;;;;;;-7.38;66.14;102275.44;87557;1284;82885;-61
2022/03/12 02:45:57;;;;;;;22.30;10.50;;;;;;;-7.39;65.88;102271.60;87284;1287;83091;-61
2022/03/12 02:48:10;;;;;;;20.10;10.10;;;;;;;-7.40;65.96;102269.55;87520;1284;99840;-60
2022/03/12 02:50:19;;;;;;;18.80;10.60;;;;;;;-7.40;65.98;102269.19;87544;1284;86566;-60
2022/03/12 02:52:40;;;;;;;19.20;10.20;;;;;;;-7.42;66.02;102271.33;87529;1284;95046;-59
2022/03/12 02:54:52;;;;;;;22.30;11.70;;;;;;;-7.46;65.94;102274.89;87519;1284;80955;-66
2022/03/12 02:57:02;;;;;;;20.90;9.90;;;;;;;-7.45;66.08;102278.39;87562;1284;81153;-66
2022/03/12 02:59:13;;;;;;;20.60;9.90;;;;;;;-7.45;66.08;102279.59;87580;1284;98089;-66
2022/03/12 03:01:26;;;;;;;26.50;10.10;;;;;;;-7.49;65.98;102278.63;87537;1284;89531;-65
2022/03/12 03:03:37;;;;;;;20.60;10.60;;;;;;;-7.48;66.05;102273.71;87565;1284;93122;-60
2022/03/12 03:05:49;;;;;;;20.10;10.00;;;;;;;-7.52;66.08;102268.71;87541;1284;80116;-59
2022/03/12 03:07:59;;;;;;;24.60;11.00;;;;;;;-7.55;66.23;102267.20;87524;1284;80590;-59
2022/03/12 03:10:10;;;;;;;20.00;10.70;;;;;;;-7.57;66.25;102269.16;87569;1284;97110;-65
2022/03/12 03:12:23;;;;;;;20.20;9.90;;;;;;;-7.61;66.40;102270.29;87555;1284;87567;-66
2022/03/12 03:14:33;;;;;;;20.50;10.40;;;;;;;-7.66;66.46;102268.30;87519;1284;95441;-66
2022/03/12 03:16:47;;;;;;;22.60;10.60;;;;;;;-7.65;66.47;102263.20;87541;1284;80879;-66
2022/03/12 03:18:57;;;;;;;22.40;11.10;;;;;;;-7.66;66.37;102259.89;87555;1284;82513;-66
2022/03/12 03:21:09;;;;;;;19.60;10.50;;;;;;;-7.63;66.60;102263.52;87539;1284;97875;-65
2022/03/12 03:23:20;;;;;;;20.70;10.60;;;;;;;-7.62;66.49;102260.00;87553;1284;87852;-65
2022/03/12 03:25:33;;;;;;;20.00;10.30;;;;;;;-7.65;66.70;102260.77;87368;1287;95770;-65
2022/03/12 03:27:41;;;;;;;22.60;10.90;;;;;;;-7.68;66.62;102262.20;87551;1284;80685;-65
2022/03/12 03:29:51;;;;;;;22.20;10.60;;;;;;;-7.70;66.59;102264.00;87555;1284;81862;-65
2022/03/12 03:32:01;;;;;;;18.60;10.20;;;;;;;-7.75;66.56;102266.54;87564;1284;98533;-66
2022/03/12 03:34:13;;;;;;;20.30;10.40;;;;;;;-7.76;66.51;102264.98;87543;1284;87057;-60
2022/03/12 03:36:23;;;;;;;17.00;9.50;;;;;;;-7.77;66.55;102260.63;87781;1275;95831;-59
2022/03/12 03:38:33;;;;;;;21.10;10.50;;;;;;;-7.82;66.60;102260.70;87567;1282;349583;-60
2022/03/12 03:40:44;;;;;;;21.80;11.10;;;;;;;-7.85;66.54;102259.01;87847;1282;82785;-67
2022/03/12 03:42:54;;;;;;;23.50;11.70;;;;;;;-7.86;66.78;102256.24;87573;1284;98908;-66
2022/03/12 03:45:07;;;;;;;20.70;9.80;;;;;;;-7.88;66.73;102255.39;87548;1284;89405;-69
2022/03/12 03:47:16;;;;;;;25.50;11.00;;;;;;;-7.87;67.06;102259.77;87740;1284;92585;-67
2022/03/12 03:49:26;;;;;;;19.20;9.60;;;;;;;-7.86;66.89;102258.68;87433;1285;84345;-60
2022/03/12 03:51:42;;;;;;;24.00;11.50;;;;;;;-7.83;66.97;102258.98;87594;1284;79522;-60
2022/03/12 03:53:52;;;;;;;20.80;9.90;;;;;;;-7.82;66.90;102258.60;87540;1284;99792;-60
2022/03/12 03:56:01;;;;;;;21.40;10.20;;;;;;;-7.84;67.08;102259.34;87558;1284;88936;-66
2022/03/12 03:58:13;;;;;;;23.10;10.90;;;;;;;-7.87;67.02;102259.05;87624;1284;94953;-67
2022/03/12 04:00:24;;;;;;;23.70;10.70;;;;;;;-7.85;66.86;102255.88;87622;1284;81717;-60
2022/03/12 04:02:36;;;;;;;20.40;10.70;;;;;;;-7.88;66.91;102258.04;87747;1284;81262;-60
2022/03/12 04:04:48;;;;;;;25.60;11.30;;;;;;;-7.86;67.12;102257.80;87772;1284;98955;-60
2022/03/12 04:06:58;;;;;;;25.80;11.20;;;;;;;-7.88;66.85;102259.77;87752;1284;87576;-67
2022/03/12 04:09:08;;;;;;;22.90;11.40;;;;;;;-7.90;66.82;102259.11;87708;1284;95713;-67
2022/03/12 04:11:21;;;;;;;23.50;11.10;;;;;;;-7.92;66.95;102259.31;87739;1284;78976;-60
2022/03/12 04:13:34;;;;;;;17.00;9.10;;;;;;;-7.96;66.93;102266.73;87777;1284;81726;-60
2022/03/12 04:15:43;;;;;;;22.80;11.30;;;;;;;-7.98;67.03;102265.55;87723;1284;99725;-66
2022/03/12 04:17:54;;;;;;;24.30;11.00;;;;;;;-7.97;66.81;102263.44;87752;1284;89770;-67
2022/03/12 04:20:04;;;;;;;23.50;10.90;;;;;;;-8.00;67.07;102258.05;87713;1284;95060;-66
2022/03/12 04:22:16;;;;;;;27.00;10.80;;;;;;;-8.03;67.10;102259.00;87745;1284;82097;-68
2022/03/12 04:24:25;;;;;;;21.00;10.60;;;;;;;-8.06;67.20;102261.15;87761;1283;80415;-66
2022/03/12 04:26:35;;;;;;;26.70;13.30;;;;;;;-8.07;67.38;102258.70;87754;1284;99648;-67
2022/03/12 04:28:48;;;;;;;20.30;10.70;;;;;;;-8.08;67.27;102257.85;87735;1284;87513;-66
2022/03/12 04:30:58;;;;;;;27.00;12.00;;;;;;;-8.07;67.64;102265.02;87756;1284;95670;-60
2022/03/12 04:33:08;;;;;;;23.00;10.70;;;;;;;-8.10;67.57;102265.24;87750;1284;82164;-61
2022/03/12 04:35:19;;;;;;;23.90;11.40;;;;;;;-8.10;67.66;102269.44;87434;1285;80197;-66
2022/03/12 04:37:28;;;;;;;19.10;10.70;;;;;;;-8.08;67.57;102266.24;87566;1284;100077;-67
2022/03/12 04:39:41;;;;;;;22.10;11.50;;;;;;;-8.06;67.68;102266.73;87749;1284;87659;-68
2022/03/12 04:41:50;;;;;;;23.80;12.30;;;;;;;-8.05;67.72;102264.12;87755;1284;95206;-60
2022/03/12 04:44:00;;;;;;;22.20;11.80;;;;;;;-8.04;67.74;102259.70;87746;1284;80791;-61
2022/03/12 04:46:10;;;;;;;26.00;11.70;;;;;;;-8.02;67.68;102262.65;87398;1285;82392;-67
2022/03/12 04:48:22;;;;;;;24.90;11.70;;;;;;;-8.01;67.65;102260.71;87548;1284;100342;-68
2022/03/12 04:50:32;;;;;;;23.40;11.30;;;;;;;-8.01;67.63;102260.01;87763;1284;89287;-62
2022/03/12 04:52:42;;;;;;;21.20;11.60;;;;;;;-8.00;67.60;102257.36;87732;1284;93629;-60
2022/03/12 04:54:58;;;;;;;23.70;11.40;;;;;;;-8.01;67.79;102250.92;87742;1284;81215;-59
2022/03/12 04:57:08;;;;;;;21.20;12.00;;;;;;;-8.05;67.89;102252.21;87758;1283;81590;-66
2022/03/12 04:59:19;;;;;;;23.60;12.40;;;;;;;-8.07;67.92;102247.70;87759;1284;99510;-60
2022/03/12 05:01:28;;;;;;;20.50;12.20;;;;;;;-8.09;67.93;102248.80;87776;1284;87665;-60
2022/03/12 05:03:42;;;;;;;19.90;10.40;;;;;;;-8.09;68.03;102244.44;87768;1284;94806;-60
2022/03/12 05:05:56;;;;;;;21.00;11.50;;;;;;;-8.07;68.08;102243.67;87735;1284;79835;-60
2022/03/12 05:08:06;;;;;;;25.60;11.80;;;;;;;-8.04;68.20;102239.96;87756;1284;80634;-60
2022/03/12 05:10:17;;;;;;;23.20;11.50;;;;;;;-7.99;68.13;102236.73;87767;1283;100352;-67
2022/03/12 05:12:27;;;;;;;24.00;11.50;;;;;;;-7.97;67.97;102233.02;87781;1284;86981;-70
2022/03/12 05:14:36;;;;;;;25.30;11.60;;;;;;;-7.94;67.97;102229.30;87741;1284;95607;-69
2022/03/12 05:16:48;;;;;;;23.40;10.70;;;;;;;-7.89;68.25;102222.04;87748;1283;82067;-59
2022/03/12 05:19:06;;;;;;;27.40;12.00;;;;;;;-7.85;68.08;102226.34;87782;1284;81902;-60
2022/03/12 05:21:15;;;;;;;24.60;11.80;;;;;;;-7.79;68.10;102228.14;87753;1284;99120;-68
2022/03/12 05:23:25;;;;;;;23.60;11.90;;;;;;;-7.71;68.10;102231.48;87757;1284;88863;-69
2022/03/12 05:25:35;;;;;;;20.60;11.10;;;;;;;-7.62;68.06;102233.23;87735;1284;95763;-59
2022/03/12 05:27:45;;;;;;;25.20;11.80;;;;;;;-7.55;68.16;102235.72;87757;1284;78840;-60
2022/03/12 05:29:54;;;;;;;21.90;11.40;;;;;;;-7.42;68.09;102232.13;87793;1284;82833;-59
2022/03/12 05:32:04;;;;;;;24.90;11.00;;;;;;;-7.33;68.07;102231.75;87771;1284;100161;-68
2022/03/12 05:34:17;;;;;;;22.40;11.60;;;;;;;-7.19;67.98;102229.89;87732;1284;89193;-68
2022/03/12 05:36:26;;;;;;;24.90;12.70;;;;;;;-7.07;67.96;102231.21;87709;1284;93929;-60
2022/03/12 05:38:36;;;;;;;26.10;11.80;;;;;;;-6.98;67.79;102231.88;87727;1284;81704;-60
2022/03/12 05:40:48;;;;;;;24.90;11.40;;;;;;;-6.89;67.88;102230.10;87774;1284;79992;-68
2022/03/12 05:42:59;;;;;;;22.70;12.40;;;;;;;-6.84;67.89;102231.40;87765;1284;99429;-69
2022/03/12 05:45:10;;;;;;;26.60;13.70;;;;;;;-6.79;67.73;102231.98;87757;1284;89075;-68
2022/03/12 05:47:23;;;;;;;22.60;12.80;;;;;;;-6.73;67.81;102236.58;87541;1284;94792;-68
2022/03/12 05:49:33;;;;;;;25.20;12.30;;;;;;;-6.62;67.86;102235.96;87727;1284;80185;-69
2022/03/12 05:51:43;;;;;;;23.20;12.40;;;;;;;-6.49;67.83;102238.98;87710;1284;80339;-69
2022/03/12 05:53:55;;;;;;;24.60;12.50;;;;;;;-6.32;67.83;102240.67;87706;1284;99622;-68
2022/03/12 05:56:05;;;;;;;23.70;13.30;;;;;;;-6.14;67.68;102245.48;87729;1284;87382;-60
2022/03/12 05:58:17;;;;;;;29.50;12.60;;;;;;;-5.82;67.53;102240.95;87734;1284;94393;-60
2022/03/12 06:00:27;;;;;;;27.50;13.90;;;;;;;-5.52;67.49;102240.45;87705;1284;79455;-69
2022/03/12 06:02:36;;;;;;;25.60;13.20;;;;;;;-5.30;67.27;102235.79;87741;1284;81465;-68
2022/03/12 06:04:46;;;;;;;26.20;13.50;;;;;;;-5.10;67.02;102236.95;87725;1283;99698;-69
2022/03/12 06:07:00;;;;;;;29.00;14.10;;;;;;;-5.03;66.63;102237.97;87709;1284;88307;-69
2022/03/12 06:09:11;;;;;;;30.10;14.80;;;;;;;-4.94;66.68;102240.51;87705;1284;94871;-69
2022/03/12 06:11:20;;;;;;;29.80;13.90;;;;;;;-4.86;66.43;102240.26;87690;1284;78933;-60
2022/03/12 06:13:31;;;;;;;25.90;13.30;;;;;;;-4.80;66.39;102234.45;87675;1284;81817;-60
2022/03/12 06:15:41;;;;;;;25.90;13.30;;;;;;;-4.80;66.32;102234.98;87707;1284;99519;-69
2022/03/12 06:17:51;;;;;;;23.20;13.30;;;;;;;-4.77;66.21;102230.66;87716;1284;89301;-69
2022/03/12 06:20:01;;;;;;;26.70;13.00;;;;;;;-4.73;66.19;102230.73;87702;1284;96340;-60
2022/03/12 06:22:11;;;;;;;25.90;13.50;;;;;;;-4.65;66.42;102226.06;87686;1284;78237;-60
2022/03/12 06:24:23;;;;;;;26.00;13.50;;;;;;;-4.47;66.24;102225.15;87701;1284;82860;-59
2022/03/12 06:26:35;;;;;;;27.30;13.60;;;;;;;-4.28;65.98;102223.29;87681;1284;100309;-69
2022/03/12 06:28:46;;;;;;;27.30;13.60;;;;;;;-4.09;65.92;102219.13;87676;1284;88909;-70
2022/03/12 06:30:58;;;;;;;26.50;14.20;;;;;;;-3.77;65.69;102215.70;87689;1284;94165;-59
2022/03/12 06:33:08;;;;;;;25.00;13.70;;;;;;;-3.47;65.56;102212.86;87667;1284;78202;-60
2022/03/12 06:35:19;;;;;;;27.50;14.20;;;;;;;-3.19;65.27;102212.52;87685;1284;81494;-69
2022/03/12 06:37:29;;;;;;;27.50;14.30;;;;;;;-2.88;65.20;102212.55;87716;1284;99522;-69
2022/03/12 06:39:39;;;;;;;23.60;13.30;;;;;;;-2.54;65.16;102212.39;87675;1284;88347;-69
2022/03/12 06:41:48;;;;;;;24.60;13.70;;;;;;;-2.26;64.83;102210.38;87641;1284;93864;-69
2022/03/12 06:43:58;;;;;;;23.90;15.00;;;;;;;-1.91;64.54;102209.60;87666;1284;81233;-70
2022/03/12 06:46:07;;;;;;;30.80;16.10;;;;;;;-1.46;64.16;102208.48;87633;1284;79899;-70
2022/03/12 06:48:17;;;;;;;32.70;17.90;;;;;;;-0.92;63.72;102215.68;87661;1283;99400;-70
2022/03/12 06:50:28;;;;;;;33.00;17.10;;;;;;;-0.49;63.17;102216.48;87389;1285;91247;-62
2022/03/12 06:52:43;;;;;;;30.90;16.80;;;;;;;-0.24;63.03;102214.17;87565;1284;95426;-59
2022/03/12 06:54:52;;;;;;;33.30;17.60;;;;;;;0.15;62.63;102212.89;87660;1284;77590;-59
2022/03/12 06:57:06;;;;;;;31.80;17.70;;;;;;;0.32;61.73;102218.73;87662;1284;83055;-58
2022/03/12 06:59:15;;;;;;;39.00;18.90;;;;;;;0.49;61.61;102220.46;87646;1283;99938;-61
2022/03/12 07:01:24;;;;;;;35.10;18.60;;;;;;;0.77;61.12;102226.96;87664;1284;88569;-70
2022/03/12 07:03:34;;;;;;;39.10;21.90;;;;;;;1.08;60.70;102231.84;87678;1284;94180;-69
2022/03/12 07:05:45;;;;;;;43.80;21.60;;;;;;;1.38;60.20;102233.54;87681;1284;79567;-71
2022/03/12 07:07:55;;;;;;;44.60;23.60;;;;;;;1.66;59.79;102236.16;87673;1284;82516;-70
2022/03/12 07:10:06;;;;;;;38.70;21.70;;;;;;;2.10;58.85;102231.27;87689;1284;99182;-71
2022/03/12 07:12:16;;;;;;;41.70;22.60;;;;;;;2.41;58.65;102224.25;87689;1284;86230;-71
2022/03/12 07:14:28;;;;;;;45.80;23.60;;;;;;;2.85;58.77;102229.15;87375;1285;95520;-71
2022/03/12 07:16:37;;;;;;;30.30;18.20;;;;;;;3.46;58.33;102226.13;87664;1284;77112;-60
2022/03/12 07:18:47;;;;;;;31.10;17.50;;;;;;;4.03;57.29;102216.45;87681;1284;82467;-59
2022/03/12 07:20:56;;;;;;;28.70;16.90;;;;;;;4.46;55.95;102211.40;87657;1284;99516;-58
2022/03/12 07:23:05;;;;;;;27.70;16.30;;;;;;;5.04;55.12;102215.60;87679;1284;88307;-58
2022/03/12 07:25:16;;;;;;;26.40;16.80;;;;;;;5.97;53.96;102215.52;87674;1284;95982;-71
2022/03/12 07:27:26;;;;;;;27.90;15.70;;;;;;;6.81;52.53;102214.19;87669;1284;80125;-71
2022/03/12 07:29:38;;;;;;;24.20;15.60;;;;;;;7.19;51.45;102221.20;87688;1284;81976;-71
2022/03/12 07:31:47;;;;;;;22.50;15.50;;;;;;;7.46;50.65;102218.95;87638;1284;97561;-70
2022/03/12 07:33:59;;;;;;;21.60;14.90;;;;;;;8.06;49.93;102215.92;87645;1284;88786;-71
2022/03/12 07:36:10;;;;;;;22.20;14.60;;;;;;;8.81;48.82;102215.15;87703;1284;93145;-59
2022/03/12 07:38:19;;;;;;;19.30;12.80;;;;;;;9.63;47.90;102215.70;87680;1284;77797;-58
2022/03/12 07:40:29;;;;;;;21.80;13.90;;;;;;;10.29;46.82;102213.84;87697;1283;80766;-74
2022/03/12 07:42:38;;;;;;;21.70;13.70;;;;;;;11.41;45.21;102216.21;87638;1284;100135;-76
2022/03/12 07:44:49;;;;;;;20.40;13.80;;;;;;;12.28;44.32;102212.59;87665;1284;87516;-76
2022/03/12 07:47:05;;;;;;;19.20;13.30;;;;;;;13.51;42.85;102212.98;87660;1284;94138;-76
2022/03/12 07:49:16;;;;;;;21.50;12.60;;;;;;;14.11;41.53;102206.65;87669;1284;78107;-74
2022/03/12 07:51:26;;;;;;;17.10;13.10;;;;;;;14.68;40.34;102208.77;87393;1285;83254;-59
2022/03/12 07:53:37;;;;;;;15.40;11.50;;;;;;;15.35;38.94;102209.20;87679;1284;100579;-61
2022/03/12 07:55:47;;;;;;;15.70;10.80;;;;;;;15.62;38.04;102212.25;87654;1284;87766;-75
2022/03/12 07:57:56;;;;;;;15.00;10.20;;;;;;;15.68;35.98;102206.98;87636;1284;93756;-75
2022/03/12 08:00:12;;;;;;;14.90;11.50;;;;;;;15.98;34.92;102205.27;87637;1284;78614;-77
2022/03/12 08:02:21;;;;;;;16.90;11.40;;;;;;;16.10;34.21;102204.63;87688;1284;81538;-78
2022/03/12 08:04:33;;;;;;;14.20;9.80;;;;;;;16.42;33.84;102197.22;87660;1284;99270;-71
2022/03/12 08:06:45;;;;;;;15.30;10.80;;;;;;;16.98;33.74;102195.16;87706;1284;88906;-58
2022/03/12 08:08:54;;;;;;;18.00;11.20;;;;;;;17.32;32.87;102194.01;87675;1284;96183;-60
2022/03/12 08:11:25;;;;;;;13.10;9.10;;;;;;;17.70;32.34;102194.02;87668;1284;78320;-77
2022/03/12 08:13:37;;;;;;;11.30;8.90;;;;;;;18.13;31.00;102190.63;87682;1284;80458;-75
2022/03/12 08:15:46;;;;;;;12.50;8.70;;;;;;;18.43;30.24;102188.98;87701;1284;98372;-76
2022/03/12 08:17:56;;;;;;;11.50;8.30;;;;;;;18.42;29.63;102187.27;87654;1284;88383;-74
2022/03/12 08:20:08;;;;;;;12.30;8.70;;;;;;;18.04;29.30;102186.90;87647;1284;95625;-60
2022/03/12 08:22:20;;;;;;;10.80;8.00;;;;;;;17.97;28.74;102179.18;87674;1284;78105;-59
2022/03/12 08:24:29;;;;;;;7.50;6.00;;;;;;;18.17;27.49;102178.01;87661;1284;82011;-59
2022/03/12 08:26:41;;;;;;;8.70;6.40;;;;;;;18.28;28.08;102180.20;87697;1284;98459;-59
2022/03/12 08:28:54;;;;;;;9.60;6.80;;;;;;;17.99;27.90;102183.45;87682;1284;87863;-60
2022/03/12 08:31:03;;;;;;;11.40;7.40;;;;;;;18.20;27.72;102186.41;87669;1284;96007;-78
2022/03/12 08:33:12;;;;;;;9.40;8.00;;;;;;;18.37;27.35;102188.66;87640;1284;78068;-78
2022/03/12 08:35:26;;;;;;;10.50;7.60;;;;;;;18.60;27.29;102188.55;87707;1284;82528;-80
2022/03/12 08:37:35;;;;;;;8.60;7.30;;;;;;;18.43;27.25;102189.95;87669;1284;99266;-72
2022/03/12 08:39:44;;;;;;;6.00;4.70;;;;;;;18.54;26.46;102189.21;87686;1284;86930;-78
2022/03/12 08:41:54;;;;;;;8.40;6.90;;;;;;;18.82;26.26;102189.91;87697;1284;95031;-61
2022/03/12 08:44:06;;;;;;;6.80;5.90;;;;;;;18.85;26.31;102187.12;87691;1284;77645;-59
2022/03/12 08:46:15;;;;;;;8.20;4.30;;;;;;;19.00;26.25;102188.94;87702;1283;81093;-78
2022/03/12 08:48:29;;;;;;;5.50;4.10;;;;;;;19.44;25.08;102197.59;87684;1284;97506;-77
2022/03/12 08:50:38;;;;;;;8.30;5.00;;;;;;;19.77;24.54;102192.55;87687;1284;88773;-76
2022/03/12 08:52:51;;;;;;;7.30;4.70;;;;;;;19.74;24.59;102194.44;87699;1284;94817;-75
2022/03/12 08:55:00;;;;;;;5.90;4.50;;;;;;;19.95;24.35;102194.13;87725;1284;78552;-66
2022/03/12 08:57:09;;;;;;;5.30;4.60;;;;;;;20.03;24.17;102188.95;87684;1284;80044;-59
2022/03/12 08:59:22;;;;;;;7.30;4.60;;;;;;;20.12;23.73;102189.35;87674;1284;98717;-61
2022/03/12 09:01:32;;;;;;;5.90;5.30;;;;;;;20.06;23.71;102188.65;87703;1283;89012;-61
2022/03/12 09:03:43;;;;;;;8.00;5.70;;;;;;;19.25;23.50;102187.86;87675;1284;96022;-60
2022/03/12 09:05:56;;;;;;;7.30;5.70;;;;;;;18.91;23.66;102184.63;87673;1284;77464;-60
2022/03/12 09:08:07;;;;;;;7.70;5.90;;;;;;;19.07;23.35;102183.71;87709;1284;81861;-62
2022/03/12 09:10:18;;;;;;;6.00;5.20;;;;;;;19.22;22.96;102183.88;87660;1284;99674;-61
2022/03/12 09:12:31;;;;;;;5.80;5.00;;;;;;;19.39;22.71;102183.98;87670;1284;89323;-61
2022/03/12 09:14:39;;;;;;;;;;;;;;;19.59;22.85;102180.80;87720;1284;93011;-58
2022/03/12 09:16:49;;;;;;;6.90;5.00;;;;;;;19.54;22.73;102179.34;87680;1284;77711;-81
2022/03/12 09:18:58;;;;;;;6.10;4.80;;;;;;;19.18;22.50;102179.80;87722;1284;81684;-80
2022/03/12 09:21:08;;;;;;;7.40;5.10;;;;;;;18.73;22.55;102174.89;87742;1284;98408;-79
2022/03/12 09:23:20;;;;;;;5.10;4.60;;;;;;;18.61;22.88;102172.27;87708;1284;89444;-80
2022/03/12 09:25:30;;;;;;;6.80;4.90;;;;;;;19.08;22.56;102174.06;87673;1284;93884;-61
2022/03/12 09:27:42;;;;;;;7.20;5.20;;;;;;;19.37;21.73;102176.30;87682;1284;77620;-60
2022/03/12 09:29:52;;;;;;;6.70;5.70;;;;;;;19.49;21.02;102174.59;87689;1284;83222;-62
2022/03/12 09:32:08;;;;;;;6.50;5.50;;;;;;;19.15;21.76;102175.14;87381;1285;101032;-74
2022/03/12 09:34:18;;;;;;;7.50;6.10;;;;;;;18.87;22.53;102166.56;87637;1284;88634;-71
2022/03/12 09:36:30;;;;;;;8.50;6.30;;;;;;;19.15;22.70;102166.55;87724;1284;93733;-76
2022/03/12 09:38:42;;;;;;;6.70;6.00;;;;;;;19.19;22.68;102162.92;87674;1284;78664;-75
2022/03/12 09:40:54;;;;;;;7.60;5.80;;;;;;;19.29;22.16;102163.43;87725;1283;83515;-82
2022/03/12 09:43:05;;;;;;;5.80;5.20;;;;;;;19.20;21.78;102165.66;87731;1284;100766;-83
2022/03/12 09:45:21;;;;;;;5.90;5.30;;;;;;;19.09;21.72;102161.52;87739;1283;89177;-59
2022/03/12 09:47:30;;;;;;;6.40;5.20;;;;;;;19.27;21.63;102157.90;87659;1284;94966;-60
2022/03/12 09:49:43;;;;;;;8.10;5.40;;;;;;;19.29;20.83;102156.25;87637;1284;78527;-61
2022/03/12 09:51:53;;;;;;;7.90;6.00;;;;;;;19.22;21.07;102150.57;87702;1284;82509;-61
2022/03/12 09:54:04;;;;;;;7.00;5.50;;;;;;;18.83;21.31;102147.71;87688;1284;96945;-61
2022/03/12 09:56:13;;;;;;;5.60;5.00;;;;;;;18.60;20.83;102141.69;87702;1284;88115;-60
2022/03/12 09:58:22;;;;;;;7.30;4.70;;;;;;;17.90;20.83;102137.28;87647;1284;96366;-78
2022/03/12 10:00:36;;;;;;;5.60;4.20;;;;;;;17.22;21.36;102137.27;87691;1284;78899;-77